AirNav   Duncan Aviation - Near you to keep you flying
 
 690 users online  

NE20 Bernadt Airport
Steinauer, Nebraska, USA

GOING TO STEINAUER?


FAA INFORMATION EFFECTIVE 03 NOVEMBER 2022

Location

FAA Identifier: NE20
Lat/Long: 40-11-10.0000N 096-12-41.0320W
40-11.166667N 096-12.683867W
40.1861111,-96.2113978
(estimated)
Elevation: 1290 ft. / 393 m (estimated)
Variation: 06E (1985)
From city: 2 miles SE of STEINAUER, NE
Time zone: UTC -6 (UTC -5 during Daylight Saving Time)
Zip code: 68441

Airport Operations

Airport use: Private use. Permission required prior to landing
Activation date: 12/1970
Control tower: no
ARTCC: MINNEAPOLIS CENTER
FSS: COLUMBUS FLIGHT SERVICE STATION
Attendance: UNATNDD
Wind indicator: yes
Segmented circle: no

Nearby radio navigation aids

VOR radial/distance  VOR name  Freq  Var
PWE at fieldPAWNEE CITY VORTAC112.4005E
BIEr099/(25.8)BEATRICE VOR110.6007E

 
NDB name  Hdg/Dist  Freq  Var  ID
NEBRASKA CITY207/29.834705EAFK .- ..-. -.-

Airport Services

Fuel available: 100
Airframe service: NONE
Powerplant service: NONE

Runway Information

Runway 17/35

Dimensions: 2300 x 70 ft. / 701 x 21 m
Surface: turf/gravel
RUNWAY 17  RUNWAY 35
Traffic pattern: leftleft
Obstructions: 30 ft. poles30 ft. poles

Airport Ownership and Management from official FAA records

Ownership: Privately-owned
Owner: BRUCE BERNADT
61909 HWY #4
STEINAUER, NE 68441
Phone 402-326-0360
Manager: BRUCE BERNADT
61909 HWY #4
STEINAUER, NE 68441
Phone 402-326-0360
OR 402-421-3653

Airport Operational Statistics

Aircraft based on the field: 1
Single engine airplanes: 1
    

Additional Remarks

FOR CD CTC MINNEAPOLIS ARTCC AT 651-463-5588.

Instrument Procedures

There are no published instrument procedures at NE20.

Some nearby airports with instrument procedures:

0G3 - Tecumseh Municipal Airport (13 nm N)
K01 - Farington Field Airport (23 nm NE)
KBIE - Beatrice Municipal Airport (26 nm W)
KMYZ - Marysville Municipal Airport (28 nm SW)
KFNB - Brenner Field Airport (29 nm E)
 
Loc | Ops | Rwys | IFR | FBO | Links
Com | Nav | Svcs | Stats | Notes
Area around NE20 (Bernadt Airport)
 
Road maps at: MapQuest Bing Google
 
Aerial photo
No photo
 
Sectional chart

 
Airport distance calculator
Flying to Bernadt Airport? Find the distance to fly.

From to NE20

Sunrise and sunset
Times for 27-Nov-2022
 Local
(UTC-6)
 Zulu
(UTC)
Morning civil twilight06:5512:55
Sunrise07:2513:25
Sunset17:0023:00
Evening civil twilight17:3023:30

Current date and time
Zulu (UTC)  27-Nov-2022 13:42:24
Local (UTC-6)  27-Nov-2022 07:42:24
 
METAR
KBIE 
25nm W 
271315Z AUTO 34011KT 10SM CLR 01/M02 A2982 RMK AO2 T00051016
KMYZ 
28nm SW 
271310Z AUTO 35013G16KT 10SM CLR 01/M01 A2981 RMK AO2
KFNB 
30nm E 
271253Z AUTO 32012KT 10SM SCT100 OVC120 03/00 A2974 RMK AO2 SLP074 T00280000
KAFK 
30nm NE 
271315Z AUTO 35016G19KT 10SM CLR 01/M01 A2978 RMK AO2 T00061014
KLNK 
46nm NW 
271254Z 34013KT 10SM CLR 01/M03 A2985 RMK AO2 SLP114 T00111033
KPMV 
48nm N 
271315Z AUTO 32015KT 10SM CLR 00/M02 A2979 RMK AO2 T00001021
KSDA 
50nm NE 
271315Z AUTO 33015G21KT 10SM CLR 02/M00 A2975 RMK AO2
TAF
KLNK 
46nm NW 
271126Z 2712/2812 35014G22KT P6SM BKN200 FM271500 34011KT P6SM SCT250
NOTAMs
Click for the latest NOTAMs
NOTAMs are issued by the DoD/FAA and will open in a separate window not controlled by AirNav.

 

 
 

Would you like to see your business listed on this page?

 If your business provides an interesting product or service to pilots, flight crews, aircraft, or users of the Bernadt Airport, you should consider listing it here.  To start the listing process, click on the button below
 
Add a business
 

Other Pages about Bernadt Airport

Update a link
 
Copyright © AirNav, LLC. All rights reserved. Privacy Policy  Contact